Time;durP1;ratioP1;P1;durP2;ratioP2;P2;SDS_P1;SDS_P2;PMS_P1;PMS_P2;Temp;Humidity;BMP_temperature;BMP_pressure;BME280_temperature;BME280_humidity;BME280_pressure;Samples;Min_cycle;Max_cycle;Signal;HPM_P1;HPM_P2
2022/01/02 00:00:00;;;;;;;3.42;0.32;;;32.00;90.50;;;;;;4968798;28;20406;-76
2022/01/02 00:02:30;;;;;;;1.17;0.35;;;32.20;93.10;;;;;;4969517;28;22972;-77
2022/01/02 00:05:04;;;;;;;1.20;0.35;;;32.30;91.30;;;;;;4969977;28;20545;-77
2022/01/02 00:07:36;;;;;;;3.15;0.60;;;32.30;92.10;;;;;;4965872;28;20034;-77
2022/01/02 00:10:06;;;;;;;2.72;0.40;;;32.50;90.00;;;;;;4959345;28;20494;-77
2022/01/02 00:12:35;;;;;;;2.33;0.30;;;32.70;88.50;;;;;;4968123;28;20022;-77
2022/01/02 00:15:07;;;;;;;1.60;0.30;;;32.80;89.60;;;;;;4970365;28;20124;-77
2022/01/02 00:17:35;;;;;;;1.98;0.40;;;32.90;88.80;;;;;;4970065;28;20050;-77
2022/01/02 00:20:10;;;;;;;2.28;0.30;;;32.50;88.20;;;;;;4964532;28;20402;-77
2022/01/02 00:22:41;;;;;;;0.63;0.32;;;32.40;87.60;;;;;;4969463;28;20034;-76
2022/01/02 00:25:23;;;;;;;1.63;0.30;;;32.70;88.90;;;;;;4972482;28;20029;-76
2022/01/02 00:27:52;;;;;;;1.27;0.30;;;33.10;89.60;;;;;;4967759;28;20030;-76
2022/01/02 00:30:21;;;;;;;3.35;0.22;;;33.50;85.50;;;;;;4968428;28;20677;-76
2022/01/02 00:32:59;;;;;;;1.60;0.40;;;33.70;84.40;;;;;;4964560;28;20046;-76
2022/01/02 00:35:27;;;;;;;2.05;0.30;;;33.70;86.80;;;;;;4968397;28;20031;-78
2022/01/02 00:37:55;;;;;;;1.80;0.65;;;34.00;88.00;;;;;;4967191;28;20023;-74
2022/01/02 00:40:22;;;;;;;0.25;0.20;;;34.40;84.60;;;;;;4964737;28;20047;-77
2022/01/02 00:42:56;;;;;;;2.22;0.40;;;34.60;82.10;;;;;;4976849;28;20042;-77
2022/01/02 00:45:27;;;;;;;2.42;0.50;;;34.40;81.50;;;;;;4963998;28;20389;-76
2022/01/02 00:48:14;;;;;;;2.60;0.65;;;34.70;82.30;;;;;;4967222;28;20107;-75
2022/01/02 00:50:51;;;;;;;1.33;0.40;;;34.60;80.80;;;;;;4962321;28;20035;-75
2022/01/02 00:53:20;;;;;;;1.65;0.20;;;34.30;79.50;;;;;;4966043;28;20030;-75
2022/01/02 00:55:48;;;;;;;0.85;0.63;;;34.00;79.30;;;;;;4970845;28;20022;-75
2022/01/02 00:58:17;;;;;;;0.80;0.68;;;34.10;80.60;;;;;;4964942;28;20027;-75
2022/01/02 01:00:54;;;;;;;2.03;0.55;;;34.50;78.90;;;;;;4960797;28;20039;-75
2022/01/02 01:03:31;;;;;;;0.60;0.30;;;34.70;79.20;;;;;;4964023;28;20089;-76
2022/01/02 01:06:04;;;;;;;1.33;0.40;;;35.00;79.70;;;;;;4970816;28;20030;-77
2022/01/02 01:08:33;;;;;;;3.85;0.35;;;34.90;77.30;;;;;;4966940;28;20481;-74
2022/01/02 01:11:04;;;;;;;1.08;0.25;;;35.20;79.90;;;;;;4973137;28;20494;-78
2022/01/02 01:13:32;;;;;;;1.13;0.40;;;35.00;75.50;;;;;;4969172;28;20104;-78
2022/01/02 01:16:00;;;;;;;2.20;0.30;;;34.90;76.20;;;;;;4970214;28;20077;-76
2022/01/02 01:18:27;;;;;;;1.70;0.20;;;34.80;76.60;;;;;;4959475;28;20035;-77
2022/01/02 01:20:55;;;;;;;1.33;0.40;;;34.60;76.70;;;;;;4968706;28;20389;-79
2022/01/02 01:23:22;;;;;;;1.23;0.47;;;34.50;76.40;;;;;;4967449;28;20497;-76
2022/01/02 01:25:51;;;;;;;0.47;0.30;;;34.60;80.50;;;;;;4966307;28;20039;-78
2022/01/02 01:28:19;;;;;;;1.58;0.50;;;34.90;76.30;;;;;;4964957;28;20026;-76
2022/01/02 01:30:48;;;;;;;1.90;0.40;;;35.00;75.80;;;;;;4967702;28;20097;-78
2022/01/02 01:33:15;;;;;;;0.60;0.20;;;35.00;75.60;;;;;;4964618;28;20712;-76
2022/01/02 01:35:43;;;;;;;1.08;0.70;;;35.40;77.20;;;;;;4963523;28;20125;-75
2022/01/02 01:38:10;;;;;;;2.63;0.50;;;35.50;81.50;;;;;;4969815;28;20030;-79
2022/01/02 01:40:46;;;;;;;1.60;0.80;;;35.70;76.40;;;;;;4961054;28;20130;-75
2022/01/02 01:43:14;;;;;;;0.57;0.22;;;35.80;74.40;;;;;;4968035;28;20101;-76
2022/01/02 01:45:42;;;;;;;1.02;0.32;;;36.00;76.60;;;;;;4971584;28;20030;-75
2022/01/02 01:48:10;;;;;;;3.33;0.30;;;36.20;76.40;;;;;;4963365;28;20059;-76
2022/01/02 01:50:42;;;;;;;2.33;0.52;;;36.50;75.70;;;;;;4961255;28;20027;-75
2022/01/02 01:53:09;;;;;;;0.73;0.20;;;36.60;71.20;;;;;;4969578;28;20042;-75
2022/01/02 01:55:38;;;;;;;1.58;0.30;;;36.30;73.00;;;;;;4971686;28;20030;-78
2022/01/02 01:58:07;;;;;;;1.27;0.30;;;36.40;74.50;;;;;;4971386;28;20050;-76
2022/01/02 02:00:35;;;;;;;0.68;0.20;;;36.60;73.40;;;;;;4972708;28;20533;-74
2022/01/02 02:03:03;;;;;;;1.17;0.75;;;36.60;72.80;;;;;;4985281;28;20066;-75
2022/01/02 02:05:31;;;;;;;1.85;0.30;;;36.50;73.10;;;;;;4971594;28;20030;-74
2022/01/02 02:07:58;;;;;;;0.70;0.30;;;36.50;73.70;;;;;;4968096;28;20050;-75
2022/01/02 02:10:34;;;;;;;3.70;0.20;;;36.40;72.30;;;;;;4974204;28;20030;-75
2022/01/02 02:13:03;;;;;;;2.05;0.85;;;36.30;74.00;;;;;;4972861;28;20027;-76
2022/01/02 02:15:31;;;;;;;0.90;0.30;;;36.60;74.20;;;;;;4974600;28;20496;-77
2022/01/02 02:17:58;;;;;;;2.00;0.50;;;36.70;70.80;;;;;;4972541;28;20433;-74
2022/01/02 02:20:38;;;;;;;1.75;0.30;;;36.70;72.30;;;;;;4968378;28;20209;-77
2022/01/02 02:23:06;;;;;;;0.20;0.20;;;36.70;70.70;;;;;;4967317;28;20042;-75
2022/01/02 02:25:37;;;;;;;1.05;0.28;;;36.80;70.20;;;;;;4965256;28;20027;-77
2022/01/02 02:28:06;;;;;;;1.40;0.30;;;37.00;71.70;;;;;;4966983;28;20030;-79
2022/01/02 02:30:38;;;;;;;1.00;0.20;;;37.10;68.30;;;;;;4970773;28;20043;-77
2022/01/02 02:33:07;;;;;;;1.17;0.25;;;36.70;68.20;;;;;;4975866;28;20038;-75
2022/01/02 02:35:36;;;;;;;1.23;0.20;;;36.40;69.80;;;;;;4972405;28;20045;-75
2022/01/02 02:38:06;;;;;;;0.60;0.15;;;36.30;69.60;;;;;;4971131;28;20047;-75
2022/01/02 02:40:34;;;;;;;0.70;0.30;;;36.50;71.10;;;;;;4969948;28;20566;-75
2022/01/02 02:43:18;;;;;;;1.38;0.30;;;36.80;69.80;;;;;;4966257;28;20711;-74
2022/01/02 02:54:09;;;;;;;1.63;0.28;;;37.40;70.90;;;;;;4965971;28;20030;-75
2022/01/02 02:59:12;;;;;;;0.80;0.40;;;37.60;72.40;;;;;;4970255;28;20063;-75
2022/01/02 03:01:41;;;;;;;0.70;0.25;;;37.80;71.40;;;;;;4966360;28;20031;-76
2022/01/02 03:04:08;;;;;;;3.45;0.40;;;37.80;68.00;;;;;;4964615;28;20079;-75
2022/01/02 03:06:36;;;;;;;1.40;0.32;;;37.50;68.00;;;;;;4970013;28;21895;-75
2022/01/02 03:36:00;;;;;;;2.40;0.40;;;37.00;72.60;;;;;;4971673;28;20041;-77
2022/01/02 03:38:28;;;;;;;2.30;0.30;;;37.20;71.60;;;;;;4972332;28;20513;-77
2022/01/02 03:40:55;;;;;;;1.88;0.57;;;37.00;69.30;;;;;;4964502;28;20093;-77
2022/01/02 03:43:23;;;;;;;1.70;0.47;;;36.90;69.70;;;;;;4973666;28;20031;-75
2022/01/02 03:45:51;;;;;;;1.67;0.30;;;36.70;69.80;;;;;;4967533;28;20546;-74
2022/01/02 03:48:19;;;;;;;2.97;0.73;;;36.70;71.10;;;;;;4967205;28;20105;-75
2022/01/02 03:50:46;;;;;;;0.98;0.85;;;36.60;71.30;;;;;;4969582;28;20039;-77
2022/01/02 03:53:14;;;;;;;2.08;0.50;;;36.50;71.40;;;;;;4965204;28;20054;-75
2022/01/02 03:55:41;;;;;;;0.55;0.30;;;36.50;71.30;;;;;;4964481;28;20061;-76
2022/01/02 03:58:09;;;;;;;1.38;0.22;;;36.60;71.60;;;;;;4966787;28;20018;-77
2022/01/02 04:00:36;;;;;;;1.02;0.30;;;36.60;71.10;;;;;;4965986;28;20712;-75
2022/01/02 04:03:04;;;;;;;1.13;0.20;;;36.70;71.10;;;;;;4963588;28;20027;-75
2022/01/02 04:05:31;;;;;;;3.13;0.30;;;36.70;71.90;;;;;;4962874;28;20379;-75
2022/01/02 04:07:59;;;;;;;1.95;0.70;;;36.70;71.90;;;;;;4965175;28;20367;-77
2022/01/02 04:10:26;;;;;;;4.70;1.73;;;36.90;71.60;;;;;;4964923;28;20035;-75
2022/01/02 04:12:54;;;;;;;3.90;2.70;;;36.60;71.50;;;;;;4967291;28;20039;-76
2022/01/02 04:15:21;;;;;;;2.47;0.80;;;36.30;72.60;;;;;;4980125;28;20436;-75
2022/01/02 04:17:49;;;;;;;4.85;3.33;;;36.20;72.10;;;;;;4978985;28;20026;-76
2022/01/02 04:20:17;;;;;;;4.45;2.05;;;36.40;72.20;;;;;;4974439;28;20049;-74
2022/01/02 04:22:45;;;;;;;1.60;1.10;;;36.10;71.80;;;;;;4960608;28;20038;-74
2022/01/02 04:25:13;;;;;;;3.50;1.63;;;35.80;72.50;;;;;;4963288;28;20038;-77
2022/01/02 04:27:41;;;;;;;10.50;9.50;;;36.00;71.90;;;;;;4967887;28;20619;-76
2022/01/02 04:30:11;;;;;;;2.63;1.20;;;36.10;72.40;;;;;;4978427;28;20043;-76
2022/01/02 04:32:39;;;;;;;2.35;0.50;;;36.20;72.20;;;;;;4984879;28;20030;-74
2022/01/02 04:35:07;;;;;;;3.15;0.90;;;36.30;71.90;;;;;;4968250;28;20019;-76
2022/01/02 04:37:35;;;;;;;1.70;0.40;;;36.50;71.20;;;;;;4966086;28;20066;-78
2022/01/02 04:40:03;;;;;;;3.05;0.63;;;36.40;71.10;;;;;;4956333;28;20039;-74
2022/01/02 04:42:30;;;;;;;2.00;0.50;;;36.30;71.50;;;;;;4965887;28;20484;-74
2022/01/02 04:44:59;;;;;;;1.45;0.30;;;36.30;71.80;;;;;;4970881;28;20481;-75
2022/01/02 04:47:27;;;;;;;2.88;0.88;;;36.20;71.50;;;;;;4970268;28;20018;-76
2022/01/02 04:49:55;;;;;;;1.42;0.65;;;36.10;72.10;;;;;;4958981;28;20539;-74
2022/01/02 04:52:22;;;;;;;2.63;0.43;;;36.30;71.90;;;;;;4963620;28;20442;-75
2022/01/02 04:54:49;;;;;;;3.03;0.82;;;36.30;71.10;;;;;;4958848;28;20034;-75
2022/01/02 04:57:17;;;;;;;5.15;0.50;;;36.20;71.00;;;;;;4975195;28;20061;-76
2022/01/02 04:59:44;;;;;;;2.25;0.47;;;36.20;71.20;;;;;;4965351;28;20073;-75
2022/01/02 05:02:11;;;;;;;3.80;0.30;;;36.30;71.30;;;;;;4970283;28;20038;-76
2022/01/02 05:04:39;;;;;;;1.13;0.50;;;36.10;70.90;;;;;;4965868;28;21795;-75
2022/01/02 05:07:07;;;;;;;2.85;0.65;;;35.90;71.80;;;;;;4971270;28;20034;-75
2022/01/02 05:09:35;;;;;;;3.22;0.52;;;35.90;72.20;;;;;;4957538;28;20379;-77
2022/01/02 05:12:02;;;;;;;1.15;0.38;;;35.90;72.50;;;;;;4967752;28;20031;-74
2022/01/02 05:14:30;;;;;;;1.58;0.40;;;35.90;72.10;;;;;;4965563;28;20034;-76
2022/01/02 05:16:57;;;;;;;0.80;0.30;;;36.00;71.90;;;;;;4954660;28;20042;-76
2022/01/02 05:19:24;;;;;;;2.35;0.43;;;35.70;72.70;;;;;;4968303;28;20102;-74
2022/01/02 05:21:52;;;;;;;1.48;0.50;;;35.60;72.30;;;;;;4970586;28;20672;-75
2022/01/02 05:24:19;;;;;;;2.83;0.70;;;35.70;72.20;;;;;;4971194;28;20121;-75
2022/01/02 05:26:46;;;;;;;2.97;0.43;;;35.60;71.90;;;;;;4961847;28;20041;-75
2022/01/02 05:29:15;;;;;;;3.13;0.60;;;35.10;72.70;;;;;;4975056;28;20054;-76
2022/01/02 05:31:42;;;;;;;1.27;0.60;;;34.40;73.60;;;;;;4972978;28;20097;-74
2022/01/02 05:34:09;;;;;;;1.40;0.50;;;34.30;74.50;;;;;;4966503;28;20039;-76
2022/01/02 05:36:37;;;;;;;1.30;0.52;;;34.50;73.80;;;;;;4966953;28;20497;-74
2022/01/02 05:39:04;;;;;;;3.05;0.52;;;34.60;73.90;;;;;;4971041;28;20510;-75
2022/01/02 05:41:33;;;;;;;4.00;0.50;;;34.90;73.20;;;;;;4970063;28;20062;-77
2022/01/02 05:44:01;;;;;;;1.85;0.52;;;35.10;73.30;;;;;;4963711;28;20082;-77
2022/01/02 05:46:28;;;;;;;4.82;0.60;;;35.10;72.40;;;;;;4985060;28;20029;-76
2022/01/02 05:48:56;;;;;;;2.60;0.90;;;35.00;72.80;;;;;;4981112;28;20026;-75
2022/01/02 05:51:23;;;;;;;4.85;1.45;;;34.80;72.90;;;;;;4978611;28;20122;-76
2022/01/02 05:53:50;;;;;;;1.63;0.65;;;34.80;74.20;;;;;;4972809;28;20105;-77
2022/01/02 05:56:18;;;;;;;2.55;0.70;;;34.70;73.60;;;;;;4966349;28;20059;-75
2022/01/02 05:58:45;;;;;;;1.52;0.40;;;34.70;73.30;;;;;;4973199;28;20425;-74
2022/01/02 06:01:12;;;;;;;3.53;0.73;;;34.70;73.40;;;;;;4973054;28;20058;-74
2022/01/02 06:03:40;;;;;;;3.45;0.50;;;34.60;73.80;;;;;;4973231;28;20023;-73
2022/01/02 06:06:07;;;;;;;2.10;0.60;;;34.60;73.90;;;;;;4975170;28;20129;-75
2022/01/02 06:08:34;;;;;;;4.40;0.70;;;34.40;74.20;;;;;;4975151;28;20030;-76
2022/01/02 06:11:01;;;;;;;3.45;0.85;;;34.30;74.00;;;;;;4974218;28;20029;-75
2022/01/02 06:13:29;;;;;;;1.90;0.50;;;34.30;74.10;;;;;;4970415;28;20560;-76
2022/01/02 06:15:56;;;;;;;5.45;0.65;;;34.30;74.20;;;;;;4971293;28;20030;-76
2022/01/02 06:18:24;;;;;;;2.20;0.50;;;34.20;74.10;;;;;;4970344;28;20474;-74
2022/01/02 06:20:51;;;;;;;2.47;0.63;;;34.20;74.00;;;;;;4971270;28;20062;-75
2022/01/02 06:23:19;;;;;;;2.08;0.68;;;34.20;74.00;;;;;;4968836;28;20050;-75
2022/01/02 06:25:47;;;;;;;4.82;0.73;;;34.10;74.60;;;;;;4969802;28;20114;-75
2022/01/02 06:28:14;;;;;;;4.57;0.70;;;33.70;75.60;;;;;;4964768;28;20545;-75
2022/01/02 06:30:41;;;;;;;2.15;0.75;;;33.40;76.30;;;;;;4972243;28;20089;-74
2022/01/02 06:33:09;;;;;;;2.80;0.80;;;33.10;76.70;;;;;;4970255;28;20097;-75
2022/01/02 06:35:36;;;;;;;3.78;0.95;;;33.10;76.90;;;;;;4965707;28;20466;-78
2022/01/02 06:38:17;;;;;;;5.22;1.75;;;33.10;76.40;;;;;;4969394;28;20023;-75
2022/01/02 06:40:44;;;;;;;3.38;1.20;;;32.90;77.20;;;;;;4959247;28;20039;-76
2022/01/02 06:43:13;;;;;;;5.53;1.33;;;32.90;77.20;;;;;;4964216;28;20029;-75
2022/01/02 06:45:41;;;;;;;4.45;1.27;;;32.80;77.20;;;;;;4974449;28;20104;-75
2022/01/02 06:48:08;;;;;;;4.50;0.85;;;32.80;77.20;;;;;;4973993;28;20034;-75
2022/01/02 06:50:36;;;;;;;3.92;0.90;;;32.90;77.00;;;;;;4971971;28;20053;-76
2022/01/02 06:53:03;;;;;;;2.45;0.65;;;33.00;77.10;;;;;;4973142;28;20122;-76
2022/01/02 06:55:30;;;;;;;2.47;0.90;;;33.00;76.90;;;;;;4961502;28;20090;-75
2022/01/02 06:57:58;;;;;;;2.92;0.85;;;33.00;77.30;;;;;;4970816;28;20462;-76
2022/01/02 07:00:25;;;;;;;2.80;1.13;;;32.90;78.20;;;;;;4970664;28;20043;-79
2022/01/02 07:02:52;;;;;;;2.38;0.50;;;32.80;78.70;;;;;;4967472;28;20041;-76
2022/01/02 07:05:20;;;;;;;3.63;1.38;;;32.40;78.80;;;;;;4982963;28;20445;-75
2022/01/02 07:07:47;;;;;;;3.33;1.27;;;32.00;79.80;;;;;;4974015;28;20103;-76
2022/01/02 07:10:16;;;;;;;2.63;0.80;;;31.70;80.50;;;;;;4968167;28;20485;-75
2022/01/02 07:12:43;;;;;;;3.75;0.65;;;31.40;81.40;;;;;;4973376;28;20377;-76
2022/01/02 07:15:11;;;;;;;4.82;0.70;;;31.30;82.20;;;;;;4971768;28;20494;-76
2022/01/02 07:17:39;;;;;;;3.55;0.82;;;31.00;82.70;;;;;;4971805;28;20430;-76
2022/01/02 07:20:08;;;;;;;3.40;0.80;;;30.90;83.50;;;;;;4973934;28;20445;-77
2022/01/02 07:22:36;;;;;;;4.88;1.10;;;30.90;83.70;;;;;;4969767;28;20102;-76
2022/01/02 07:25:04;;;;;;;6.93;0.98;;;31.00;83.60;;;;;;4973615;28;20548;-77
2022/01/02 07:27:31;;;;;;;4.85;0.70;;;31.10;83.00;;;;;;4972676;28;20067;-76
2022/01/02 07:29:59;;;;;;;2.17;0.52;;;31.20;81.90;;;;;;4974081;28;20035;-75
2022/01/02 07:32:27;;;;;;;4.30;0.75;;;31.30;81.90;;;;;;4970443;28;20027;-78
2022/01/02 07:34:54;;;;;;;4.13;0.70;;;31.20;81.80;;;;;;4972293;28;20061;-76
2022/01/02 07:37:21;;;;;;;5.47;0.85;;;31.10;81.70;;;;;;4972466;28;20031;-76
2022/01/02 07:39:49;;;;;;;2.88;1.08;;;31.00;81.00;;;;;;4966241;28;20066;-77
2022/01/02 07:42:16;;;;;;;4.13;0.80;;;30.80;80.50;;;;;;4962768;28;20030;-79
2022/01/02 07:44:44;;;;;;;3.70;0.70;;;30.70;81.20;;;;;;4970871;28;20571;-77
2022/01/02 07:47:11;;;;;;;2.78;0.70;;;30.50;81.90;;;;;;4969927;28;20098;-78
2022/01/02 07:49:38;;;;;;;2.22;0.40;;;30.50;82.40;;;;;;4966747;28;20026;-76
2022/01/02 07:52:06;;;;;;;3.65;0.88;;;30.40;82.40;;;;;;4968335;28;20059;-77
2022/01/02 07:54:33;;;;;;;2.50;0.65;;;30.50;81.80;;;;;;4965739;28;20042;-80
2022/01/02 07:57:01;;;;;;;3.88;0.60;;;30.40;80.80;;;;;;4969447;28;20046;-78
2022/01/02 07:59:28;;;;;;;1.58;0.50;;;30.30;81.40;;;;;;4973037;28;20019;-75
2022/01/02 08:01:55;;;;;;;3.10;0.70;;;30.20;81.90;;;;;;4973253;28;20031;-77
2022/01/02 08:04:22;;;;;;;4.50;0.55;;;30.10;82.30;;;;;;4971183;28;20482;-76
2022/01/02 08:06:50;;;;;;;2.17;1.25;;;30.00;82.80;;;;;;4957484;28;20030;-77
2022/01/02 08:09:17;;;;;;;2.63;0.60;;;29.80;82.70;;;;;;4969590;28;20034;-76
2022/01/02 08:11:44;;;;;;;3.45;0.50;;;29.70;83.20;;;;;;4978748;28;20031;-76
2022/01/02 08:14:12;;;;;;;2.50;1.10;;;29.60;83.20;;;;;;4970797;28;20485;-76
2022/01/02 08:16:39;;;;;;;3.63;0.60;;;29.60;83.70;;;;;;4974251;28;20393;-76
2022/01/02 08:19:08;;;;;;;2.90;0.60;;;29.50;82.60;;;;;;4982674;28;20026;-75
2022/01/02 08:21:36;;;;;;;2.65;0.85;;;29.40;83.40;;;;;;4970185;28;20140;-75
2022/01/02 08:24:03;;;;;;;7.28;0.80;;;29.20;84.80;;;;;;4968958;28;20274;-76
2022/01/02 08:26:31;;;;;;;5.25;0.77;;;29.30;85.80;;;;;;4968478;28;20023;-76
2022/01/02 08:29:01;;;;;;;2.38;0.70;;;29.20;86.20;;;;;;4965920;28;20495;-75
2022/01/02 08:31:30;;;;;;;4.10;0.60;;;29.10;86.60;;;;;;4973834;28;20363;-75
2022/01/02 08:33:58;;;;;;;4.72;0.68;;;29.10;86.90;;;;;;4971886;28;20443;-76
2022/01/02 08:36:26;;;;;;;3.30;0.68;;;29.00;87.10;;;;;;4961728;28;20023;-75
2022/01/02 08:38:53;;;;;;;2.55;0.55;;;29.00;87.30;;;;;;4968927;28;20030;-74
2022/01/02 08:41:21;;;;;;;3.58;0.43;;;28.80;87.50;;;;;;4968559;28;20082;-76
2022/01/02 08:43:48;;;;;;;2.65;0.68;;;28.80;88.00;;;;;;4966704;28;20027;-76
2022/01/02 08:46:16;;;;;;;3.85;1.00;;;28.70;88.10;;;;;;4958714;28;20031;-77
2022/01/02 08:48:43;;;;;;;2.28;1.35;;;28.60;88.20;;;;;;4965351;28;20101;-78
2022/01/02 08:51:12;;;;;;;4.43;1.10;;;28.40;88.90;;;;;;4968714;28;20015;-77
2022/01/02 08:53:40;;;;;;;4.15;0.52;;;28.10;89.50;;;;;;4968834;28;20089;-75
2022/01/02 08:56:08;;;;;;;6.10;0.47;;;28.00;89.80;;;;;;4972465;28;20027;-75
2022/01/02 08:58:35;;;;;;;4.32;1.15;;;28.00;89.00;;;;;;4969305;28;20498;-77
2022/01/02 09:01:03;;;;;;;2.35;0.65;;;27.80;88.80;;;;;;4971268;28;20055;-77
2022/01/02 09:03:31;;;;;;;3.65;0.60;;;27.80;89.00;;;;;;4963807;28;20031;-77
2022/01/02 09:05:58;;;;;;;1.45;0.40;;;27.70;88.40;;;;;;4963881;28;20153;-79
2022/01/02 09:08:25;;;;;;;2.33;0.70;;;27.60;88.90;;;;;;4963416;28;20070;-76
2022/01/02 09:10:53;;;;;;;3.33;0.82;;;27.60;88.70;;;;;;4972509;28;20030;-76
2022/01/02 09:13:23;;;;;;;4.35;0.73;;;27.50;88.40;;;;;;4969212;28;20057;-75
2022/01/02 09:15:51;;;;;;;2.20;0.50;;;27.40;88.60;;;;;;4972510;28;20027;-77
2022/01/02 09:18:18;;;;;;;5.72;0.98;;;27.20;88.60;;;;;;4962408;28;20023;-77
2022/01/02 09:20:45;;;;;;;4.30;0.60;;;27.10;89.20;;;;;;4968130;28;20102;-76
2022/01/02 09:23:13;;;;;;;4.68;1.00;;;27.00;89.30;;;;;;4966319;28;20075;-75
2022/01/02 09:25:40;;;;;;;4.25;0.60;;;27.00;89.40;;;;;;4966545;28;20030;-79
2022/01/02 09:28:08;;;;;;;2.67;0.40;;;27.00;89.50;;;;;;4959993;28;20023;-74
2022/01/02 09:30:35;;;;;;;2.97;0.60;;;26.90;89.50;;;;;;4955705;28;20517;-75
2022/01/02 09:33:08;;;;;;;2.97;0.45;;;26.90;89.70;;;;;;4972041;28;20022;-77
2022/01/02 09:35:37;;;;;;;2.95;0.70;;;26.80;90.00;;;;;;4952566;28;20066;-76
2022/01/02 09:38:05;;;;;;;6.70;0.60;;;26.80;90.20;;;;;;4966239;28;20022;-76
2022/01/02 09:40:32;;;;;;;5.10;0.98;;;26.80;90.20;;;;;;4974987;28;20307;-77
2022/01/02 09:43:02;;;;;;;2.38;0.65;;;26.80;90.30;;;;;;4965913;28;20047;-77
2022/01/02 09:45:33;;;;;;;3.92;1.05;;;26.70;90.40;;;;;;4964785;28;20504;-77
2022/01/02 09:48:02;;;;;;;3.25;0.50;;;26.70;90.60;;;;;;4964404;28;20031;-75
2022/01/02 09:50:31;;;;;;;3.92;0.50;;;26.80;90.70;;;;;;4966239;28;20482;-75
2022/01/02 09:52:58;;;;;;;4.00;0.80;;;26.70;90.70;;;;;;4967483;28;20077;-75
2022/01/02 09:55:26;;;;;;;7.18;0.93;;;26.50;91.20;;;;;;4968999;28;20482;-76
2022/01/02 09:57:58;;;;;;;3.03;1.50;;;26.40;91.60;;;;;;4967930;28;20039;-76
2022/01/02 10:00:26;;;;;;;7.72;1.50;;;26.40;91.60;;;;;;4959686;28;20501;-76
2022/01/02 10:02:58;;;;;;;7.50;0.80;;;26.40;91.80;;;;;;4960121;28;20031;-75
2022/01/02 10:05:27;;;;;;;3.20;1.30;;;26.30;92.00;;;;;;4971021;28;20065;-75
2022/01/02 10:07:56;;;;;;;5.00;0.75;;;26.30;92.00;;;;;;4967407;28;20106;-78
2022/01/02 10:10:33;;;;;;;5.40;1.40;;;26.30;92.30;;;;;;4970048;28;20085;-75
2022/01/02 10:13:03;;;;;;;3.65;0.65;;;26.20;92.50;;;;;;4966065;28;20027;-76
2022/01/02 10:15:32;;;;;;;2.13;0.47;;;26.30;92.50;;;;;;4968111;28;20481;-76
2022/01/02 10:18:11;;;;;;;4.05;0.82;;;26.30;92.50;;;;;;4967359;28;20393;-77
2022/01/02 10:20:41;;;;;;;4.20;1.38;;;26.20;92.70;;;;;;4959286;28;20035;-76
2022/01/02 10:23:14;;;;;;;5.55;1.02;;;26.20;92.80;;;;;;4970896;28;20053;-76
2022/01/02 10:25:51;;;;;;;3.40;0.88;;;26.20;92.90;;;;;;4974393;28;20037;-77
2022/01/02 10:28:35;;;;;;;2.47;0.82;;;26.20;93.00;;;;;;4972695;28;20031;-75
2022/01/02 10:31:06;;;;;;;4.13;0.60;;;26.10;93.30;;;;;;4973974;28;20042;-75
2022/01/02 10:33:47;;;;;;;7.13;1.05;;;26.10;93.20;;;;;;4973943;28;20034;-76
2022/01/02 10:36:15;;;;;;;6.13;0.70;;;26.20;93.30;;;;;;4969293;28;20035;-77
2022/01/02 10:39:10;;;;;;;4.88;1.35;;;26.10;93.40;;;;;;4971615;28;20089;-77
2022/01/02 10:41:40;;;;;;;2.78;0.88;;;25.90;93.70;;;;;;4969327;28;20043;-78
2022/01/02 10:44:34;;;;;;;5.45;1.48;;;25.90;93.80;;;;;;4971190;28;20031;-76
2022/01/02 10:47:15;;;;;;;8.43;1.08;;;25.80;94.10;;;;;;4960067;28;20045;-77
2022/01/02 10:50:11;;;;;;;5.10;1.42;;;25.70;94.40;;;;;;4965693;28;20106;-77
2022/01/02 10:52:45;;;;;;;9.07;1.77;;;25.50;94.80;;;;;;4971912;28;20030;-77
2022/01/02 10:55:22;;;;;;;3.47;0.75;;;25.50;95.00;;;;;;4969517;28;20027;-77
2022/01/02 10:57:52;;;;;;;5.63;0.85;;;25.50;95.10;;;;;;4969858;28;20027;-76
2022/01/02 11:00:29;;;;;;;5.68;0.75;;;25.50;95.30;;;;;;4953976;28;20023;-76
2022/01/02 11:02:57;;;;;;;12.23;1.20;;;25.50;95.20;;;;;;4965539;28;20543;-78
2022/01/02 11:05:27;;;;;;;5.97;1.40;;;25.50;95.40;;;;;;4965280;28;20438;-78
2022/01/02 11:08:00;;;;;;;3.35;0.93;;;25.40;95.70;;;;;;4969725;28;20027;-79
2022/01/02 11:10:30;;;;;;;6.03;1.70;;;25.40;95.80;;;;;;4955653;28;20035;-78
2022/01/02 11:12:58;;;;;;;8.57;2.42;;;25.30;96.00;;;;;;4956466;28;20083;-77
2022/01/02 11:15:28;;;;;;;3.38;0.65;;;25.30;96.40;;;;;;4965947;28;20104;-77
2022/01/02 11:17:56;;;;;;;5.68;1.77;;;25.30;96.30;;;;;;4967808;28;20030;-77
2022/01/02 11:20:34;;;;;;;5.07;0.90;;;25.30;96.40;;;;;;4965469;28;20035;-76
2022/01/02 11:23:20;;;;;;;7.57;1.05;;;25.30;96.40;;;;;;4965287;28;20643;-77
2022/01/02 11:26:10;;;;;;;5.18;1.98;;;25.30;96.60;;;;;;4964381;28;20031;-77
2022/01/02 11:28:57;;;;;;;6.45;0.70;;;25.10;96.90;;;;;;4968759;28;20042;-77
2022/01/02 11:31:40;;;;;;;2.38;1.23;;;24.90;97.20;;;;;;4970779;28;20028;-77
2022/01/02 11:34:35;;;;;;;6.50;0.93;;;24.80;97.40;;;;;;4965218;28;20085;-76
2022/01/02 11:37:14;;;;;;;4.32;0.50;;;24.70;97.80;;;;;;4965729;28;20141;-77
2022/01/02 11:40:06;;;;;;;4.57;0.85;;;24.70;97.90;;;;;;4968212;28;20022;-77
2022/01/02 11:42:38;;;;;;;6.97;1.25;;;24.70;97.90;;;;;;4962111;28;20688;-77
2022/01/02 11:45:07;;;;;;;1.95;0.60;;;24.70;98.10;;;;;;4964813;28;20063;-78
2022/01/02 11:47:46;;;;;;;5.70;0.95;;;24.60;98.20;;;;;;4968604;28;20398;-77
2022/01/02 11:50:37;;;;;;;4.82;0.85;;;24.60;98.40;;;;;;4972612;28;20037;-76
2022/01/02 11:53:14;;;;;;;5.75;1.35;;;24.70;98.30;;;;;;4962760;28;20039;-76
2022/01/02 11:55:43;;;;;;;4.05;1.33;;;24.80;98.10;;;;;;4967352;28;20048;-78
2022/01/02 11:58:11;;;;;;;5.32;1.08;;;24.80;98.00;;;;;;4966824;28;20080;-76
2022/01/02 12:00:47;;;;;;;5.28;0.80;;;24.70;98.20;;;;;;4966617;28;20050;-77
2022/01/02 12:03:47;;;;;;;3.10;0.60;;;24.80;98.20;;;;;;4960442;28;20451;-78
2022/01/02 12:06:23;;;;;;;2.70;1.00;;;24.70;98.30;;;;;;4958024;28;20517;-77
2022/01/02 12:08:52;;;;;;;4.38;0.90;;;24.70;98.40;;;;;;4962514;28;20024;-77
2022/01/02 12:11:40;;;;;;;5.47;0.95;;;24.60;98.50;;;;;;4966528;28;20031;-78
2022/01/02 12:14:19;;;;;;;3.65;1.00;;;24.60;98.50;;;;;;4982198;28;20077;-79
2022/01/02 12:16:58;;;;;;;7.35;0.90;;;24.70;98.50;;;;;;4974812;28;20050;-77
2022/01/02 12:19:27;;;;;;;2.78;0.57;;;24.60;98.40;;;;;;4969021;28;20169;-76
2022/01/02 12:22:14;;;;;;;3.28;1.23;;;24.60;98.50;;;;;;4974517;28;20124;-78
2022/01/02 12:24:44;;;;;;;7.88;1.23;;;24.60;98.70;;;;;;4967207;28;20057;-76
2022/01/02 12:27:13;;;;;;;5.15;1.00;;;24.40;98.90;;;;;;4965277;28;20015;-77
2022/01/02 12:29:41;;;;;;;3.97;0.52;;;24.40;99.10;;;;;;4962962;28;20484;-78
2022/01/02 12:32:09;;;;;;;4.82;0.50;;;24.40;99.20;;;;;;4974092;28;20053;-76
2022/01/02 12:34:37;;;;;;;3.97;0.65;;;24.40;99.20;;;;;;4974260;28;20042;-79
2022/01/02 12:37:04;;;;;;;4.95;0.70;;;24.50;98.90;;;;;;4982356;28;20042;-77
2022/01/02 12:39:37;;;;;;;7.30;0.60;;;24.60;98.90;;;;;;4967731;28;20470;-79
2022/01/02 12:42:19;;;;;;;4.00;1.35;;;24.60;98.80;;;;;;4969154;28;20042;-78
2022/01/02 12:44:46;;;;;;;5.70;1.40;;;24.60;98.90;;;;;;4964451;28;20037;-77
2022/01/02 12:47:14;;;;;;;6.28;1.35;;;24.50;99.10;;;;;;4970338;28;20023;-80
2022/01/02 12:49:44;;;;;;;5.07;0.70;;;24.40;99.30;;;;;;4968285;28;20392;-78
2022/01/02 12:52:16;;;;;;;4.88;1.15;;;24.40;99.40;;;;;;4966523;28;20022;-78
2022/01/02 12:54:51;;;;;;;5.53;1.65;;;24.50;99.40;;;;;;4967677;28;20486;-77
2022/01/02 12:57:21;;;;;;;4.00;1.08;;;24.50;99.50;;;;;;4971131;28;20461;-75
2022/01/02 12:59:51;;;;;;;5.97;1.10;;;24.50;99.80;;;;;;4967513;28;20389;-78
2022/01/02 13:02:22;;;;;;;2.55;0.45;;;24.50;99.40;;;;;;4953086;28;20444;-76
2022/01/02 13:04:55;;;;;;;5.95;1.20;;;24.60;99.60;;;;;;4967008;28;20026;-75
2022/01/02 13:07:27;;;;;;;2.92;1.10;;;24.70;99.50;;;;;;4980557;28;20034;-77
2022/01/02 13:09:56;;;;;;;6.05;1.15;;;24.80;99.20;;;;;;4971038;28;20100;-77
2022/01/02 13:12:36;;;;;;;2.65;0.70;;;24.90;99.20;;;;;;4966720;28;20042;-75
2022/01/02 13:15:10;;;;;;;5.18;0.93;;;25.00;98.90;;;;;;4965040;28;20452;-77
2022/01/02 13:17:51;;;;;;;6.03;1.25;;;25.10;99.00;;;;;;4964191;28;20128;-77
2022/01/02 13:20:22;;;;;;;2.13;0.60;;;25.00;98.80;;;;;;4976265;28;20120;-75
2022/01/02 13:22:54;;;;;;;9.70;1.73;;;25.10;98.90;;;;;;4964211;28;20073;-76
2022/01/02 13:25:28;;;;;;;5.82;0.77;;;25.00;98.90;;;;;;4968315;28;20026;-78
2022/01/02 13:27:58;;;;;;;6.30;0.90;;;24.90;99.10;;;;;;4967670;28;20068;-78
2022/01/02 13:30:29;;;;;;;3.88;0.60;;;24.90;99.20;;;;;;4972011;28;20035;-85
2022/01/02 13:33:02;;;;;;;8.40;0.85;;;25.00;98.90;;;;;;4965474;28;20027;-81
2022/01/02 13:35:31;;;;;;;4.20;0.73;;;25.00;98.70;;;;;;4967932;28;20352;-75
2022/01/02 13:38:07;;;;;;;4.80;0.73;;;24.90;99.20;;;;;;4960748;28;20410;-76
2022/01/02 13:40:38;;;;;;;6.93;2.35;;;24.70;99.50;;;;;;4961910;28;20093;-77